sensor_id;sensor_type;location;lat;lon;timestamp;P1;durP1;ratioP1;P2;durP2;ratioP2
19207;SDS011;9737;59.466;18.036;2023-04-06T00:00:29;9.57;;;5.50;;
19207;SDS011;9737;59.466;18.036;2023-04-06T00:02:57;9.32;;;5.25;;
19207;SDS011;9737;59.466;18.036;2023-04-06T00:05:25;8.93;;;4.97;;
19207;SDS011;9737;59.466;18.036;2023-04-06T00:07:54;11.10;;;5.47;;
19207;SDS011;9737;59.466;18.036;2023-04-06T00:10:23;10.02;;;5.07;;
19207;SDS011;9737;59.466;18.036;2023-04-06T00:12:52;10.27;;;5.10;;
19207;SDS011;9737;59.466;18.036;2023-04-06T00:15:20;8.73;;;5.40;;
19207;SDS011;9737;59.466;18.036;2023-04-06T00:17:48;9.43;;;5.13;;
19207;SDS011;9737;59.466;18.036;2023-04-06T00:20:17;9.18;;;5.22;;
19207;SDS011;9737;59.466;18.036;2023-04-06T00:22:45;11.27;;;5.50;;
19207;SDS011;9737;59.466;18.036;2023-04-06T00:25:13;10.40;;;5.43;;
19207;SDS011;9737;59.466;18.036;2023-04-06T00:27:44;11.15;;;5.40;;
19207;SDS011;9737;59.466;18.036;2023-04-06T00:30:12;12.70;;;5.78;;
19207;SDS011;9737;59.466;18.036;2023-04-06T00:32:39;10.63;;;5.45;;
19207;SDS011;9737;59.466;18.036;2023-04-06T00:35:08;8.57;;;4.78;;
19207;SDS011;9737;59.466;18.036;2023-04-06T00:37:36;12.65;;;5.78;;
19207;SDS011;9737;59.466;18.036;2023-04-06T00:40:04;15.45;;;5.80;;
19207;SDS011;9737;59.466;18.036;2023-04-06T00:42:33;13.88;;;5.78;;
19207;SDS011;9737;59.466;18.036;2023-04-06T00:45:03;9.35;;;5.35;;
19207;SDS011;9737;59.466;18.036;2023-04-06T00:47:32;11.55;;;6.00;;
19207;SDS011;9737;59.466;18.036;2023-04-06T00:50:00;11.98;;;5.75;;
19207;SDS011;9737;59.466;18.036;2023-04-06T00:52:28;8.00;;;5.07;;
19207;SDS011;9737;59.466;18.036;2023-04-06T00:54:56;11.38;;;6.03;;
19207;SDS011;9737;59.466;18.036;2023-04-06T00:57:24;10.82;;;5.43;;
19207;SDS011;9737;59.466;18.036;2023-04-06T00:59:52;10.50;;;5.43;;
19207;SDS011;9737;59.466;18.036;2023-04-06T01:02:22;9.68;;;5.35;;
19207;SDS011;9737;59.466;18.036;2023-04-06T01:04:51;11.15;;;5.80;;
19207;SDS011;9737;59.466;18.036;2023-04-06T01:07:20;13.70;;;5.45;;
19207;SDS011;9737;59.466;18.036;2023-04-06T01:09:48;11.93;;;5.38;;
19207;SDS011;9737;59.466;18.036;2023-04-06T01:12:16;10.35;;;5.53;;
19207;SDS011;9737;59.466;18.036;2023-04-06T01:14:44;11.32;;;5.70;;
19207;SDS011;9737;59.466;18.036;2023-04-06T01:17:12;8.13;;;5.30;;
19207;SDS011;9737;59.466;18.036;2023-04-06T01:19:41;10.48;;;5.60;;
19207;SDS011;9737;59.466;18.036;2023-04-06T01:22:14;10.60;;;5.78;;
19207;SDS011;9737;59.466;18.036;2023-04-06T01:24:43;12.73;;;5.18;;
19207;SDS011;9737;59.466;18.036;2023-04-06T01:27:11;11.45;;;5.70;;
19207;SDS011;9737;59.466;18.036;2023-04-06T01:29:39;10.60;;;5.72;;
19207;SDS011;9737;59.466;18.036;2023-04-06T01:32:07;12.10;;;5.80;;
19207;SDS011;9737;59.466;18.036;2023-04-06T01:34:36;10.20;;;5.22;;
19207;SDS011;9737;59.466;18.036;2023-04-06T01:37:03;9.25;;;5.50;;
19207;SDS011;9737;59.466;18.036;2023-04-06T01:39:33;10.90;;;5.55;;
19207;SDS011;9737;59.466;18.036;2023-04-06T01:42:01;10.40;;;5.70;;
19207;SDS011;9737;59.466;18.036;2023-04-06T01:44:29;16.00;;;5.95;;
19207;SDS011;9737;59.466;18.036;2023-04-06T01:46:57;10.07;;;5.53;;
19207;SDS011;9737;59.466;18.036;2023-04-06T01:49:25;11.63;;;5.68;;
19207;SDS011;9737;59.466;18.036;2023-04-06T01:51:53;14.05;;;5.70;;
19207;SDS011;9737;59.466;18.036;2023-04-06T01:54:22;12.95;;;5.82;;
19207;SDS011;9737;59.466;18.036;2023-04-06T01:56:51;12.00;;;6.00;;
19207;SDS011;9737;59.466;18.036;2023-04-06T01:59:20;13.40;;;5.72;;
19207;SDS011;9737;59.466;18.036;2023-04-06T02:01:48;13.23;;;5.90;;
19207;SDS011;9737;59.466;18.036;2023-04-06T02:04:17;12.43;;;5.72;;
19207;SDS011;9737;59.466;18.036;2023-04-06T02:06:45;9.27;;;5.50;;
19207;SDS011;9737;59.466;18.036;2023-04-06T02:09:13;11.80;;;5.63;;
19207;SDS011;9737;59.466;18.036;2023-04-06T02:11:42;9.68;;;5.45;;
19207;SDS011;9737;59.466;18.036;2023-04-06T02:14:11;16.50;;;5.55;;
19207;SDS011;9737;59.466;18.036;2023-04-06T02:16:39;12.48;;;5.50;;
19207;SDS011;9737;59.466;18.036;2023-04-06T02:19:07;15.18;;;5.72;;
19207;SDS011;9737;59.466;18.036;2023-04-06T02:21:36;10.70;;;5.55;;
19207;SDS011;9737;59.466;18.036;2023-04-06T02:24:04;8.73;;;5.63;;
19207;SDS011;9737;59.466;18.036;2023-04-06T02:26:32;13.57;;;6.03;;
19207;SDS011;9737;59.466;18.036;2023-04-06T02:29:02;12.40;;;5.50;;
19207;SDS011;9737;59.466;18.036;2023-04-06T02:34:05;8.27;;;5.10;;
19207;SDS011;9737;59.466;18.036;2023-04-06T02:36:33;13.18;;;5.03;;
19207;SDS011;9737;59.466;18.036;2023-04-06T02:39:01;9.55;;;4.88;;
19207;SDS011;9737;59.466;18.036;2023-04-06T02:41:29;11.85;;;5.43;;
19207;SDS011;9737;59.466;18.036;2023-04-06T02:43:57;15.93;;;5.50;;
19207;SDS011;9737;59.466;18.036;2023-04-06T02:46:25;11.68;;;5.70;;
19207;SDS011;9737;59.466;18.036;2023-04-06T02:48:53;13.65;;;5.80;;
19207;SDS011;9737;59.466;18.036;2023-04-06T02:51:22;10.15;;;5.40;;
19207;SDS011;9737;59.466;18.036;2023-04-06T02:53:50;15.80;;;5.43;;
19207;SDS011;9737;59.466;18.036;2023-04-06T02:56:18;9.85;;;5.30;;
19207;SDS011;9737;59.466;18.036;2023-04-06T02:58:47;13.75;;;5.95;;
19207;SDS011;9737;59.466;18.036;2023-04-06T03:01:15;10.10;;;5.90;;
19207;SDS011;9737;59.466;18.036;2023-04-06T03:03:43;11.35;;;5.53;;
19207;SDS011;9737;59.466;18.036;2023-04-06T03:06:11;14.27;;;6.18;;
19207;SDS011;9737;59.466;18.036;2023-04-06T03:08:40;9.32;;;5.60;;
19207;SDS011;9737;59.466;18.036;2023-04-06T03:11:08;11.18;;;5.90;;
19207;SDS011;9737;59.466;18.036;2023-04-06T03:13:36;15.07;;;5.95;;
19207;SDS011;9737;59.466;18.036;2023-04-06T03:16:05;15.65;;;5.88;;
19207;SDS011;9737;59.466;18.036;2023-04-06T03:18:33;14.23;;;5.78;;
19207;SDS011;9737;59.466;18.036;2023-04-06T03:21:01;13.20;;;5.57;;
19207;SDS011;9737;59.466;18.036;2023-04-06T03:23:29;12.88;;;5.72;;
19207;SDS011;9737;59.466;18.036;2023-04-06T03:25:58;9.90;;;5.65;;
19207;SDS011;9737;59.466;18.036;2023-04-06T03:28:26;15.10;;;5.32;;
19207;SDS011;9737;59.466;18.036;2023-04-06T03:30:54;9.23;;;5.28;;
19207;SDS011;9737;59.466;18.036;2023-04-06T03:33:22;12.23;;;5.90;;
19207;SDS011;9737;59.466;18.036;2023-04-06T03:35:50;11.32;;;5.38;;
19207;SDS011;9737;59.466;18.036;2023-04-06T03:38:18;12.63;;;5.68;;
19207;SDS011;9737;59.466;18.036;2023-04-06T03:40:46;12.05;;;5.85;;
19207;SDS011;9737;59.466;18.036;2023-04-06T03:43:15;11.80;;;5.25;;
19207;SDS011;9737;59.466;18.036;2023-04-06T03:45:43;11.43;;;6.00;;
19207;SDS011;9737;59.466;18.036;2023-04-06T03:48:11;10.68;;;5.70;;
19207;SDS011;9737;59.466;18.036;2023-04-06T03:50:39;13.27;;;5.80;;
19207;SDS011;9737;59.466;18.036;2023-04-06T03:53:07;10.88;;;6.20;;
19207;SDS011;9737;59.466;18.036;2023-04-06T03:55:35;12.25;;;6.03;;
19207;SDS011;9737;59.466;18.036;2023-04-06T03:58:03;23.95;;;5.93;;
19207;SDS011;9737;59.466;18.036;2023-04-06T04:00:32;16.90;;;6.28;;
19207;SDS011;9737;59.466;18.036;2023-04-06T04:03:00;9.07;;;5.18;;
19207;SDS011;9737;59.466;18.036;2023-04-06T04:05:28;12.32;;;6.15;;
19207;SDS011;9737;59.466;18.036;2023-04-06T04:07:56;9.77;;;5.80;;
19207;SDS011;9737;59.466;18.036;2023-04-06T04:10:24;10.82;;;5.80;;
19207;SDS011;9737;59.466;18.036;2023-04-06T04:12:52;11.75;;;5.93;;
19207;SDS011;9737;59.466;18.036;2023-04-06T04:15:20;8.88;;;5.05;;
19207;SDS011;9737;59.466;18.036;2023-04-06T04:17:49;12.07;;;6.30;;
19207;SDS011;9737;59.466;18.036;2023-04-06T04:20:17;10.52;;;6.00;;
19207;SDS011;9737;59.466;18.036;2023-04-06T04:22:45;14.57;;;5.80;;
19207;SDS011;9737;59.466;18.036;2023-04-06T04:25:13;10.63;;;5.85;;
19207;SDS011;9737;59.466;18.036;2023-04-06T04:27:41;12.02;;;5.85;;
19207;SDS011;9737;59.466;18.036;2023-04-06T04:30:09;10.50;;;6.22;;
19207;SDS011;9737;59.466;18.036;2023-04-06T04:32:37;10.63;;;5.82;;
19207;SDS011;9737;59.466;18.036;2023-04-06T04:35:07;11.38;;;6.07;;
19207;SDS011;9737;59.466;18.036;2023-04-06T04:37:35;9.00;;;5.88;;
19207;SDS011;9737;59.466;18.036;2023-04-06T04:40:04;13.40;;;5.97;;
19207;SDS011;9737;59.466;18.036;2023-04-06T04:42:33;15.65;;;6.00;;
19207;SDS011;9737;59.466;18.036;2023-04-06T04:45:01;13.43;;;6.40;;
19207;SDS011;9737;59.466;18.036;2023-04-06T04:47:29;17.33;;;5.82;;
19207;SDS011;9737;59.466;18.036;2023-04-06T04:49:57;11.73;;;6.30;;
19207;SDS011;9737;59.466;18.036;2023-04-06T04:52:26;16.10;;;8.05;;
19207;SDS011;9737;59.466;18.036;2023-04-06T04:54:54;14.65;;;6.88;;
19207;SDS011;9737;59.466;18.036;2023-04-06T04:57:22;11.32;;;6.15;;
19207;SDS011;9737;59.466;18.036;2023-04-06T04:59:49;13.48;;;6.30;;
19207;SDS011;9737;59.466;18.036;2023-04-06T05:02:17;15.23;;;6.20;;
19207;SDS011;9737;59.466;18.036;2023-04-06T05:04:46;15.40;;;6.32;;
19207;SDS011;9737;59.466;18.036;2023-04-06T05:07:13;14.70;;;6.38;;
19207;SDS011;9737;59.466;18.036;2023-04-06T05:09:46;11.88;;;6.25;;
19207;SDS011;9737;59.466;18.036;2023-04-06T05:12:14;11.82;;;6.47;;
19207;SDS011;9737;59.466;18.036;2023-04-06T05:14:43;12.93;;;5.85;;
19207;SDS011;9737;59.466;18.036;2023-04-06T05:17:11;15.20;;;6.55;;
19207;SDS011;9737;59.466;18.036;2023-04-06T05:19:39;12.00;;;6.55;;
19207;SDS011;9737;59.466;18.036;2023-04-06T05:22:07;13.77;;;7.43;;
19207;SDS011;9737;59.466;18.036;2023-04-06T05:24:37;12.15;;;6.80;;
19207;SDS011;9737;59.466;18.036;2023-04-06T05:27:08;13.35;;;7.30;;
19207;SDS011;9737;59.466;18.036;2023-04-06T05:29:36;15.50;;;7.57;;
19207;SDS011;9737;59.466;18.036;2023-04-06T05:32:04;15.25;;;8.75;;
19207;SDS011;9737;59.466;18.036;2023-04-06T05:34:32;14.98;;;8.43;;
19207;SDS011;9737;59.466;18.036;2023-04-06T05:37:00;14.20;;;8.15;;
19207;SDS011;9737;59.466;18.036;2023-04-06T05:39:28;15.77;;;9.10;;
19207;SDS011;9737;59.466;18.036;2023-04-06T05:41:56;17.70;;;9.13;;
19207;SDS011;9737;59.466;18.036;2023-04-06T05:44:25;15.35;;;8.85;;
19207;SDS011;9737;59.466;18.036;2023-04-06T05:46:53;13.43;;;8.25;;
19207;SDS011;9737;59.466;18.036;2023-04-06T05:49:21;15.35;;;8.52;;
19207;SDS011;9737;59.466;18.036;2023-04-06T05:51:49;11.77;;;7.20;;
19207;SDS011;9737;59.466;18.036;2023-04-06T05:54:17;10.98;;;6.70;;
19207;SDS011;9737;59.466;18.036;2023-04-06T05:56:45;13.55;;;7.28;;
19207;SDS011;9737;59.466;18.036;2023-04-06T05:59:13;11.55;;;6.57;;
19207;SDS011;9737;59.466;18.036;2023-04-06T06:01:43;14.32;;;6.93;;
19207;SDS011;9737;59.466;18.036;2023-04-06T06:04:11;11.55;;;6.30;;
19207;SDS011;9737;59.466;18.036;2023-04-06T06:06:39;10.00;;;6.28;;
19207;SDS011;9737;59.466;18.036;2023-04-06T06:09:07;10.88;;;6.15;;
19207;SDS011;9737;59.466;18.036;2023-04-06T06:11:35;10.77;;;5.90;;
19207;SDS011;9737;59.466;18.036;2023-04-06T06:14:03;7.55;;;5.68;;
19207;SDS011;9737;59.466;18.036;2023-04-06T06:16:31;9.13;;;5.88;;
19207;SDS011;9737;59.466;18.036;2023-04-06T06:19:01;14.45;;;6.10;;
19207;SDS011;9737;59.466;18.036;2023-04-06T06:21:31;9.00;;;5.63;;
19207;SDS011;9737;59.466;18.036;2023-04-06T06:23:59;10.68;;;5.63;;
19207;SDS011;9737;59.466;18.036;2023-04-06T06:26:27;9.77;;;5.28;;
19207;SDS011;9737;59.466;18.036;2023-04-06T06:28:55;7.28;;;5.20;;
19207;SDS011;9737;59.466;18.036;2023-04-06T06:31:23;10.27;;;5.35;;
19207;SDS011;9737;59.466;18.036;2023-04-06T06:33:51;6.97;;;5.22;;
19207;SDS011;9737;59.466;18.036;2023-04-06T06:36:21;8.85;;;4.72;;
19207;SDS011;9737;59.466;18.036;2023-04-06T06:38:48;7.88;;;4.82;;
19207;SDS011;9737;59.466;18.036;2023-04-06T06:41:16;7.97;;;5.40;;
19207;SDS011;9737;59.466;18.036;2023-04-06T06:43:44;8.55;;;5.38;;
19207;SDS011;9737;59.466;18.036;2023-04-06T06:46:12;7.85;;;5.03;;
19207;SDS011;9737;59.466;18.036;2023-04-06T06:48:40;7.35;;;5.10;;
19207;SDS011;9737;59.466;18.036;2023-04-06T06:51:08;9.05;;;4.97;;
19207;SDS011;9737;59.466;18.036;2023-04-06T06:53:39;8.50;;;4.93;;
19207;SDS011;9737;59.466;18.036;2023-04-06T06:56:07;9.60;;;4.85;;
19207;SDS011;9737;59.466;18.036;2023-04-06T06:58:35;7.65;;;4.85;;
19207;SDS011;9737;59.466;18.036;2023-04-06T07:01:03;7.65;;;4.88;;
19207;SDS011;9737;59.466;18.036;2023-04-06T07:03:32;7.03;;;4.90;;
19207;SDS011;9737;59.466;18.036;2023-04-06T07:05:59;10.23;;;4.50;;
19207;SDS011;9737;59.466;18.036;2023-04-06T07:08:27;8.30;;;4.70;;
19207;SDS011;9737;59.466;18.036;2023-04-06T07:10:57;6.95;;;4.60;;
19207;SDS011;9737;59.466;18.036;2023-04-06T07:13:25;6.50;;;4.57;;
19207;SDS011;9737;59.466;18.036;2023-04-06T07:15:54;7.90;;;4.72;;
19207;SDS011;9737;59.466;18.036;2023-04-06T07:18:22;8.18;;;5.00;;
19207;SDS011;9737;59.466;18.036;2023-04-06T07:20:50;8.55;;;5.00;;
19207;SDS011;9737;59.466;18.036;2023-04-06T07:23:18;8.20;;;5.30;;
19207;SDS011;9737;59.466;18.036;2023-04-06T07:25:46;7.55;;;4.90;;
19207;SDS011;9737;59.466;18.036;2023-04-06T07:28:15;7.45;;;5.07;;
19207;SDS011;9737;59.466;18.036;2023-04-06T07:30:43;7.80;;;4.80;;
19207;SDS011;9737;59.466;18.036;2023-04-06T07:33:11;6.63;;;4.68;;
19207;SDS011;9737;59.466;18.036;2023-04-06T07:35:39;7.57;;;4.85;;
19207;SDS011;9737;59.466;18.036;2023-04-06T07:38:07;6.10;;;4.38;;
19207;SDS011;9737;59.466;18.036;2023-04-06T07:40:35;6.22;;;3.72;;
19207;SDS011;9737;59.466;18.036;2023-04-06T07:43:02;8.48;;;4.30;;
19207;SDS011;9737;59.466;18.036;2023-04-06T07:45:32;4.40;;;3.80;;
19207;SDS011;9737;59.466;18.036;2023-04-06T07:48:00;8.27;;;3.78;;
19207;SDS011;9737;59.466;18.036;2023-04-06T07:50:28;7.70;;;3.97;;
19207;SDS011;9737;59.466;18.036;2023-04-06T07:52:55;7.65;;;3.88;;
19207;SDS011;9737;59.466;18.036;2023-04-06T07:55:24;6.30;;;3.60;;
19207;SDS011;9737;59.466;18.036;2023-04-06T07:57:51;8.35;;;3.90;;
19207;SDS011;9737;59.466;18.036;2023-04-06T08:00:20;4.72;;;3.70;;
19207;SDS011;9737;59.466;18.036;2023-04-06T08:02:50;5.28;;;3.60;;
19207;SDS011;9737;59.466;18.036;2023-04-06T08:05:18;4.95;;;3.33;;
19207;SDS011;9737;59.466;18.036;2023-04-06T08:07:45;6.32;;;3.90;;
19207;SDS011;9737;59.466;18.036;2023-04-06T08:10:13;6.15;;;3.00;;
19207;SDS011;9737;59.466;18.036;2023-04-06T08:12:41;3.63;;;2.63;;
19207;SDS011;9737;59.466;18.036;2023-04-06T08:15:10;5.60;;;2.63;;
19207;SDS011;9737;59.466;18.036;2023-04-06T08:17:38;4.60;;;2.50;;
19207;SDS011;9737;59.466;18.036;2023-04-06T08:20:07;3.88;;;2.28;;
19207;SDS011;9737;59.466;18.036;2023-04-06T08:22:36;4.70;;;2.78;;
19207;SDS011;9737;59.466;18.036;2023-04-06T08:25:04;4.22;;;2.67;;
19207;SDS011;9737;59.466;18.036;2023-04-06T08:27:32;6.13;;;3.22;;
19207;SDS011;9737;59.466;18.036;2023-04-06T08:30:00;4.15;;;2.55;;
19207;SDS011;9737;59.466;18.036;2023-04-06T08:32:28;3.08;;;2.47;;
19207;SDS011;9737;59.466;18.036;2023-04-06T08:34:56;4.72;;;2.65;;
19207;SDS011;9737;59.466;18.036;2023-04-06T08:37:26;3.70;;;2.80;;
19207;SDS011;9737;59.466;18.036;2023-04-06T08:39:54;6.97;;;3.13;;
19207;SDS011;9737;59.466;18.036;2023-04-06T08:42:22;3.80;;;2.85;;
19207;SDS011;9737;59.466;18.036;2023-04-06T08:44:53;4.53;;;2.78;;
19207;SDS011;9737;59.466;18.036;2023-04-06T08:47:22;4.35;;;2.85;;
19207;SDS011;9737;59.466;18.036;2023-04-06T08:49:50;7.00;;;2.90;;
19207;SDS011;9737;59.466;18.036;2023-04-06T08:52:20;3.08;;;2.78;;
19207;SDS011;9737;59.466;18.036;2023-04-06T08:54:49;5.80;;;2.90;;
19207;SDS011;9737;59.466;18.036;2023-04-06T08:57:17;4.97;;;2.92;;
19207;SDS011;9737;59.466;18.036;2023-04-06T08:59:46;3.63;;;2.70;;
19207;SDS011;9737;59.466;18.036;2023-04-06T09:02:15;5.32;;;3.20;;
19207;SDS011;9737;59.466;18.036;2023-04-06T09:04:45;3.70;;;2.85;;
19207;SDS011;9737;59.466;18.036;2023-04-06T09:07:13;4.57;;;2.83;;
19207;SDS011;9737;59.466;18.036;2023-04-06T09:09:42;5.03;;;2.90;;
19207;SDS011;9737;59.466;18.036;2023-04-06T09:12:23;4.43;;;2.88;;
19207;SDS011;9737;59.466;18.036;2023-04-06T09:14:53;2.88;;;2.58;;
19207;SDS011;9737;59.466;18.036;2023-04-06T09:17:22;4.43;;;2.60;;
19207;SDS011;9737;59.466;18.036;2023-04-06T09:19:51;3.65;;;2.53;;
19207;SDS011;9737;59.466;18.036;2023-04-06T09:22:20;3.20;;;2.72;;
19207;SDS011;9737;59.466;18.036;2023-04-06T09:24:48;3.80;;;2.78;;
19207;SDS011;9737;59.466;18.036;2023-04-06T09:27:16;5.90;;;3.00;;
19207;SDS011;9737;59.466;18.036;2023-04-06T09:29:46;4.78;;;2.90;;
19207;SDS011;9737;59.466;18.036;2023-04-06T09:32:14;4.72;;;2.72;;
19207;SDS011;9737;59.466;18.036;2023-04-06T09:34:43;6.53;;;3.33;;
19207;SDS011;9737;59.466;18.036;2023-04-06T09:37:16;6.63;;;2.60;;
19207;SDS011;9737;59.466;18.036;2023-04-06T09:39:45;6.53;;;3.05;;
19207;SDS011;9737;59.466;18.036;2023-04-06T09:42:22;4.50;;;2.90;;
19207;SDS011;9737;59.466;18.036;2023-04-06T09:44:54;4.10;;;2.47;;
19207;SDS011;9737;59.466;18.036;2023-04-06T09:47:22;6.05;;;3.22;;
19207;SDS011;9737;59.466;18.036;2023-04-06T09:49:55;3.20;;;2.60;;
19207;SDS011;9737;59.466;18.036;2023-04-06T09:52:24;2.90;;;2.55;;
19207;SDS011;9737;59.466;18.036;2023-04-06T09:54:55;3.17;;;2.17;;
19207;SDS011;9737;59.466;18.036;2023-04-06T09:57:29;3.25;;;2.45;;
19207;SDS011;9737;59.466;18.036;2023-04-06T10:00:04;2.80;;;1.80;;
19207;SDS011;9737;59.466;18.036;2023-04-06T10:02:39;2.25;;;1.80;;
19207;SDS011;9737;59.466;18.036;2023-04-06T10:05:16;2.80;;;2.15;;
19207;SDS011;9737;59.466;18.036;2023-04-06T10:07:47;9.50;;;2.03;;
19207;SDS011;9737;59.466;18.036;2023-04-06T10:10:25;7.22;;;2.35;;
19207;SDS011;9737;59.466;18.036;2023-04-06T10:12:54;2.88;;;2.22;;
19207;SDS011;9737;59.466;18.036;2023-04-06T10:15:24;10.45;;;2.60;;
19207;SDS011;9737;59.466;18.036;2023-04-06T10:17:52;4.60;;;2.60;;
19207;SDS011;9737;59.466;18.036;2023-04-06T10:20:22;2.50;;;2.30;;
19207;SDS011;9737;59.466;18.036;2023-04-06T10:22:58;4.32;;;2.72;;
19207;SDS011;9737;59.466;18.036;2023-04-06T10:25:29;7.18;;;2.70;;
19207;SDS011;9737;59.466;18.036;2023-04-06T10:28:01;12.50;;;2.70;;
19207;SDS011;9737;59.466;18.036;2023-04-06T10:30:33;3.67;;;2.30;;
19207;SDS011;9737;59.466;18.036;2023-04-06T10:33:12;8.77;;;2.67;;
19207;SDS011;9737;59.466;18.036;2023-04-06T10:35:40;4.63;;;2.70;;
19207;SDS011;9737;59.466;18.036;2023-04-06T10:38:09;3.38;;;2.70;;
19207;SDS011;9737;59.466;18.036;2023-04-06T10:40:38;5.82;;;2.70;;
19207;SDS011;9737;59.466;18.036;2023-04-06T10:43:09;3.53;;;2.70;;
19207;SDS011;9737;59.466;18.036;2023-04-06T10:45:40;8.93;;;2.70;;
19207;SDS011;9737;59.466;18.036;2023-04-06T10:48:13;3.72;;;2.38;;
19207;SDS011;9737;59.466;18.036;2023-04-06T10:50:43;4.65;;;2.45;;
19207;SDS011;9737;59.466;18.036;2023-04-06T10:53:12;5.60;;;2.42;;
19207;SDS011;9737;59.466;18.036;2023-04-06T10:55:49;2.78;;;2.42;;
19207;SDS011;9737;59.466;18.036;2023-04-06T10:58:18;4.28;;;2.40;;
19207;SDS011;9737;59.466;18.036;2023-04-06T11:00:48;4.70;;;3.20;;
19207;SDS011;9737;59.466;18.036;2023-04-06T11:03:17;3.17;;;2.33;;
19207;SDS011;9737;59.466;18.036;2023-04-06T11:05:46;11.30;;;2.83;;
19207;SDS011;9737;59.466;18.036;2023-04-06T11:11:04;5.93;;;3.00;;
19207;SDS011;9737;59.466;18.036;2023-04-06T11:13:37;2.95;;;2.50;;
19207;SDS011;9737;59.466;18.036;2023-04-06T11:16:11;8.15;;;2.83;;
19207;SDS011;9737;59.466;18.036;2023-04-06T11:18:47;6.40;;;2.58;;
19207;SDS011;9737;59.466;18.036;2023-04-06T11:21:16;4.65;;;2.45;;
19207;SDS011;9737;59.466;18.036;2023-04-06T11:23:45;3.67;;;2.80;;
19207;SDS011;9737;59.466;18.036;2023-04-06T11:26:15;3.80;;;2.55;;
19207;SDS011;9737;59.466;18.036;2023-04-06T11:28:43;13.73;;;2.72;;
19207;SDS011;9737;59.466;18.036;2023-04-06T11:31:12;2.88;;;2.40;;
19207;SDS011;9737;59.466;18.036;2023-04-06T11:33:40;6.22;;;2.60;;
19207;SDS011;9737;59.466;18.036;2023-04-06T11:36:08;2.30;;;2.10;;
19207;SDS011;9737;59.466;18.036;2023-04-06T11:38:38;6.10;;;2.40;;
19207;SDS011;9737;59.466;18.036;2023-04-06T11:41:06;5.85;;;2.30;;
19207;SDS011;9737;59.466;18.036;2023-04-06T11:43:34;3.58;;;2.05;;
19207;SDS011;9737;59.466;18.036;2023-04-06T11:46:02;2.35;;;1.75;;
19207;SDS011;9737;59.466;18.036;2023-04-06T11:48:32;2.80;;;1.80;;
19207;SDS011;9737;59.466;18.036;2023-04-06T11:51:12;2.17;;;1.67;;
19207;SDS011;9737;59.466;18.036;2023-04-06T11:53:43;2.17;;;1.98;;
19207;SDS011;9737;59.466;18.036;2023-04-06T11:56:22;6.25;;;2.10;;
19207;SDS011;9737;59.466;18.036;2023-04-06T11:58:50;9.30;;;2.20;;
19207;SDS011;9737;59.466;18.036;2023-04-06T12:01:19;4.05;;;2.25;;
19207;SDS011;9737;59.466;18.036;2023-04-06T12:03:48;3.03;;;2.13;;
19207;SDS011;9737;59.466;18.036;2023-04-06T12:06:16;7.28;;;2.10;;
19207;SDS011;9737;59.466;18.036;2023-04-06T12:08:45;2.65;;;1.90;;
19207;SDS011;9737;59.466;18.036;2023-04-06T12:11:12;3.63;;;2.10;;
19207;SDS011;9737;59.466;18.036;2023-04-06T12:13:40;3.17;;;2.20;;
19207;SDS011;9737;59.466;18.036;2023-04-06T12:16:08;12.57;;;2.30;;
19207;SDS011;9737;59.466;18.036;2023-04-06T12:18:36;4.60;;;2.05;;
19207;SDS011;9737;59.466;18.036;2023-04-06T12:21:06;2.78;;;2.10;;
19207;SDS011;9737;59.466;18.036;2023-04-06T12:23:34;5.00;;;2.30;;
19207;SDS011;9737;59.466;18.036;2023-04-06T12:26:02;3.70;;;2.08;;
19207;SDS011;9737;59.466;18.036;2023-04-06T12:28:30;5.38;;;2.13;;
19207;SDS011;9737;59.466;18.036;2023-04-06T12:30:58;4.63;;;2.50;;
19207;SDS011;9737;59.466;18.036;2023-04-06T12:33:26;3.50;;;2.40;;
19207;SDS011;9737;59.466;18.036;2023-04-06T12:35:54;4.20;;;2.33;;
19207;SDS011;9737;59.466;18.036;2023-04-06T12:38:24;3.67;;;2.40;;
19207;SDS011;9737;59.466;18.036;2023-04-06T12:40:52;4.00;;;2.83;;
19207;SDS011;9737;59.466;18.036;2023-04-06T12:43:20;4.53;;;2.38;;
19207;SDS011;9737;59.466;18.036;2023-04-06T12:45:48;4.05;;;2.40;;
19207;SDS011;9737;59.466;18.036;2023-04-06T12:48:17;3.38;;;2.58;;
19207;SDS011;9737;59.466;18.036;2023-04-06T12:50:44;4.85;;;2.40;;
19207;SDS011;9737;59.466;18.036;2023-04-06T12:53:23;5.32;;;2.80;;
19207;SDS011;9737;59.466;18.036;2023-04-06T12:55:51;4.22;;;2.50;;
19207;SDS011;9737;59.466;18.036;2023-04-06T12:58:20;2.70;;;2.20;;
19207;SDS011;9737;59.466;18.036;2023-04-06T13:00:49;3.40;;;2.83;;
19207;SDS011;9737;59.466;18.036;2023-04-06T13:03:17;4.18;;;2.50;;
19207;SDS011;9737;59.466;18.036;2023-04-06T13:05:46;6.65;;;2.75;;
19207;SDS011;9737;59.466;18.036;2023-04-06T13:08:16;4.75;;;2.72;;
19207;SDS011;9737;59.466;18.036;2023-04-06T13:10:47;3.85;;;2.60;;
19207;SDS011;9737;59.466;18.036;2023-04-06T13:13:17;5.47;;;2.47;;
19207;SDS011;9737;59.466;18.036;2023-04-06T13:15:45;7.30;;;2.50;;
19207;SDS011;9737;59.466;18.036;2023-04-06T13:18:13;5.03;;;2.60;;
19207;SDS011;9737;59.466;18.036;2023-04-06T13:20:43;5.47;;;2.53;;
19207;SDS011;9737;59.466;18.036;2023-04-06T13:23:11;5.47;;;2.35;;
19207;SDS011;9737;59.466;18.036;2023-04-06T13:25:38;5.32;;;2.38;;
19207;SDS011;9737;59.466;18.036;2023-04-06T13:28:08;4.82;;;2.50;;
19207;SDS011;9737;59.466;18.036;2023-04-06T13:30:37;3.05;;;2.42;;
19207;SDS011;9737;59.466;18.036;2023-04-06T13:33:04;3.92;;;2.33;;
19207;SDS011;9737;59.466;18.036;2023-04-06T13:35:33;4.72;;;2.40;;
19207;SDS011;9737;59.466;18.036;2023-04-06T13:38:02;5.47;;;2.47;;
19207;SDS011;9737;59.466;18.036;2023-04-06T13:40:29;6.55;;;2.80;;
19207;SDS011;9737;59.466;18.036;2023-04-06T13:42:57;4.35;;;2.47;;
19207;SDS011;9737;59.466;18.036;2023-04-06T13:45:27;4.50;;;2.30;;
19207;SDS011;9737;59.466;18.036;2023-04-06T13:47:54;3.25;;;2.30;;
19207;SDS011;9737;59.466;18.036;2023-04-06T13:50:22;3.10;;;2.20;;
19207;SDS011;9737;59.466;18.036;2023-04-06T13:52:52;3.15;;;2.60;;
19207;SDS011;9737;59.466;18.036;2023-04-06T13:55:20;5.20;;;2.70;;
19207;SDS011;9737;59.466;18.036;2023-04-06T13:57:50;3.78;;;2.60;;
19207;SDS011;9737;59.466;18.036;2023-04-06T14:00:19;4.45;;;2.90;;
19207;SDS011;9737;59.466;18.036;2023-04-06T14:02:48;3.78;;;2.90;;
19207;SDS011;9737;59.466;18.036;2023-04-06T14:05:16;3.72;;;2.88;;
19207;SDS011;9737;59.466;18.036;2023-04-06T14:07:44;3.72;;;2.65;;
19207;SDS011;9737;59.466;18.036;2023-04-06T14:10:12;4.72;;;2.72;;
19207;SDS011;9737;59.466;18.036;2023-04-06T14:12:41;6.70;;;3.30;;
19207;SDS011;9737;59.466;18.036;2023-04-06T14:15:10;4.07;;;3.00;;
19207;SDS011;9737;59.466;18.036;2023-04-06T14:17:39;4.25;;;2.88;;
19207;SDS011;9737;59.466;18.036;2023-04-06T14:20:09;3.55;;;2.70;;
19207;SDS011;9737;59.466;18.036;2023-04-06T14:22:41;5.07;;;2.45;;
19207;SDS011;9737;59.466;18.036;2023-04-06T14:25:10;3.15;;;2.55;;
19207;SDS011;9737;59.466;18.036;2023-04-06T14:27:39;12.90;;;3.20;;
19207;SDS011;9737;59.466;18.036;2023-04-06T14:30:10;8.38;;;2.70;;
19207;SDS011;9737;59.466;18.036;2023-04-06T14:32:38;5.28;;;2.83;;
19207;SDS011;9737;59.466;18.036;2023-04-06T14:35:08;5.97;;;2.35;;
19207;SDS011;9737;59.466;18.036;2023-04-06T14:37:37;6.00;;;2.65;;
19207;SDS011;9737;59.466;18.036;2023-04-06T14:40:05;8.02;;;2.78;;
19207;SDS011;9737;59.466;18.036;2023-04-06T14:42:35;3.40;;;2.38;;
19207;SDS011;9737;59.466;18.036;2023-04-06T14:45:03;8.48;;;2.95;;
19207;SDS011;9737;59.466;18.036;2023-04-06T14:47:32;2.47;;;2.13;;
19207;SDS011;9737;59.466;18.036;2023-04-06T14:50:00;4.78;;;2.47;;
19207;SDS011;9737;59.466;18.036;2023-04-06T14:52:29;5.47;;;2.40;;
19207;SDS011;9737;59.466;18.036;2023-04-06T14:54:58;4.45;;;2.60;;
19207;SDS011;9737;59.466;18.036;2023-04-06T14:57:26;6.43;;;2.78;;